KDGW/DGW METAR and TAF weather

Enter ICAO airport designator
Station Type Date Time Source
KDGW METAR 2024/04/17 19:24 UTC NOAA

KDGW 171924Z AUTO 36010KT 10SM BKN021 OVC034 03/M02 A3000 RMK AO2 SNE1856 P0000 T00281017


Station Type Date Time Source
KDGW Decoded METAR 2024/04/17 19:24 UTC NOAA

DOUGLAS CONVERSE COUNTY, WY, United States (KDGW) 42-48N 105-23W 1499M
Apr 17, 2024 - 03:24 PM EDT / 2024.04.17 1924 UTC
Wind: from the N (360 degrees) at 12 MPH (10 KT):0
Visibility: 10 mile(s):0
Sky conditions: overcast
Precipitation last hour: A trace
Temperature: 37.0 F (2.8 C)
Dew Point: 28.9 F (-1.7 C)
Relative Humidity: 72%
Pressure (altimeter): 30 in. Hg (1015 hPa)
ob: KDGW 171924Z AUTO 36010KT 10SM BKN021 OVC034 03/M02 A3000 RMK AO2 SNE1856 P0000 T00281017
cycle: 19

Station Type Date Time Source
KDGW TAF UTC NOAA

Error!

Example: see airport list